Time,TemperatureF,DewpointF,PressureIn,WindDirection,WindDirectionDegrees,WindSpeedMPH,WindSpeedGustMPH,Humidity,HourlyPrecipIn,Conditions,Clouds,dailyrainin,SoftwareType,DateUTC
2013-04-23 00:00:00,31.0,29.7,30.08,NNW,335,6.0,12.0,95,0.00,,SKC,0.00,VWS V14.01,2013-04-23 05:00:00,
2013-04-23 00:05:00,30.9,29.6,30.08,North,351,5.0,11.0,95,0.00,,SKC,0.00,VWS V14.01,2013-04-23 05:05:00,
2013-04-23 00:10:00,30.9,29.6,30.07,NW,325,6.0,12.0,95,0.00,,SKC,0.00,VWS V14.01,2013-04-23 05:10:00,
2013-04-23 00:15:00,30.9,29.6,30.06,NNW,338,6.0,14.0,95,0.00,,SKC,0.00,VWS V14.01,2013-04-23 05:15:00,
2013-04-23 00:20:00,31.0,29.7,30.06,NNW,337,8.0,14.0,95,0.00,,SKC,0.00,VWS V14.01,2013-04-23 05:20:00,
2013-04-23 00:25:00,30.9,29.6,30.07,NW,325,7.0,14.0,95,0.00,,SKC,0.00,VWS V14.01,2013-04-23 05:25:00,
2013-04-23 00:30:00,30.8,29.5,30.07,NW,325,7.0,14.0,95,0.00,,SKC,0.00,VWS V14.01,2013-04-23 05:30:00,
2013-04-23 00:35:00,30.8,29.5,30.07,NNW,346,6.0,14.0,95,0.00,,SKC,0.00,VWS V14.01,2013-04-23 05:35:00,
2013-04-23 00:40:00,30.8,29.5,30.06,NW,326,6.0,9.0,95,0.00,,SKC,0.00,VWS V14.01,2013-04-23 05:40:00,
2013-04-23 00:45:00,30.8,29.5,30.06,NNW,330,6.0,9.0,95,0.00,,SKC,0.00,VWS V14.01,2013-04-23 05:45:00,
2013-04-23 00:50:00,30.8,29.5,30.06,NW,321,11.0,11.0,95,0.00,,SKC,0.00,VWS V14.01,2013-04-23 05:50:00,
2013-04-23 00:55:00,30.7,29.4,30.06,NNW,329,5.0,12.0,95,0.00,,SKC,0.00,VWS V14.01,2013-04-23 05:55:00,
2013-04-23 01:00:00,30.7,29.4,30.06,NNW,329,7.0,12.0,95,0.00,,SKC,0.00,VWS V14.01,2013-04-23 06:00:00,
2013-04-23 01:05:00,30.8,29.5,30.06,NW,321,6.0,12.0,95,0.00,,SKC,0.00,VWS V14.01,2013-04-23 06:05:00,
2013-04-23 01:10:00,30.8,29.5,30.06,NNW,344,5.0,10.0,95,0.00,,SKC,0.00,VWS V14.01,2013-04-23 06:10:00,
2013-04-23 01:15:00,30.7,29.4,30.05,NNW,330,5.0,11.0,95,0.00,,SKC,0.00,VWS V14.01,2013-04-23 06:15:00,
2013-04-23 01:21:00,30.8,29.5,30.06,NW,325,5.0,11.0,95,0.00,,SKC,0.00,VWS V14.01,2013-04-23 06:21:00,
2013-04-23 01:26:00,30.7,29.4,30.06,NW,323,7.0,11.0,95,0.00,,SKC,0.00,VWS V14.01,2013-04-23 06:26:00,
2013-04-23 01:30:00,30.9,29.6,30.06,NW,319,8.0,11.0,95,0.00,,SKC,0.00,VWS V14.01,2013-04-23 06:30:00,
2013-04-23 01:31:00,30.7,29.4,30.06,NNW,327,6.0,11.0,95,0.00,,SKC,0.00,VWS V14.01,2013-04-23 06:31:00,
2013-04-23 01:36:00,30.9,29.6,30.06,NW,319,6.0,11.0,95,0.00,,SKC,0.00,VWS V14.01,2013-04-23 06:36:00,
2013-04-23 01:41:00,30.8,29.5,30.05,NNW,329,7.0,12.0,95,0.00,,SKC,0.00,VWS V14.01,2013-04-23 06:41:00,
2013-04-23 01:46:00,30.7,29.4,30.05,NW,317,12.0,12.0,95,0.00,,SKC,0.00,VWS V14.01,2013-04-23 06:46:00,
2013-04-23 01:51:00,30.6,29.1,30.06,NW,325,7.0,12.0,94,0.00,,SKC,0.00,VWS V14.01,2013-04-23 06:51:00,
2013-04-23 01:56:00,30.6,29.1,30.06,NW,319,4.0,12.0,94,0.00,,SKC,0.00,VWS V14.01,2013-04-23 06:56:00,
2013-04-23 02:00:00,30.5,29.0,30.05,NNW,338,10.0,13.0,94,0.00,,SKC,0.00,VWS V14.01,2013-04-23 07:00:00,
2013-04-23 02:01:00,30.5,29.0,30.05,NNW,344,8.0,13.0,94,0.00,,SKC,0.00,VWS V14.01,2013-04-23 07:01:00,
2013-04-23 02:06:00,30.5,29.0,30.05,NNW,329,7.0,13.0,94,0.00,,SKC,0.00,VWS V14.01,2013-04-23 07:06:00,
2013-04-23 02:11:00,30.4,28.9,30.06,NNW,333,8.0,13.0,94,0.00,,SKC,0.00,VWS V14.01,2013-04-23 07:11:00,
2013-04-23 02:16:00,30.3,28.8,30.06,NNW,327,8.0,13.0,94,0.00,,SKC,0.00,VWS V14.01,2013-04-23 07:16:00,
2013-04-23 02:21:00,30.2,28.7,30.07,NW,322,7.0,13.0,94,0.00,,SKC,0.00,VWS V14.01,2013-04-23 07:21:00,
2013-04-23 02:26:00,30.2,28.7,30.07,NW,325,8.0,13.0,94,0.00,,SKC,0.00,VWS V14.01,2013-04-23 07:26:00,
2013-04-23 02:30:00,30.1,28.6,30.06,NW,323,7.0,13.0,94,0.00,,SKC,0.00,VWS V14.01,2013-04-23 07:30:00,
2013-04-23 02:31:00,30.1,28.6,30.06,NW,325,10.0,13.0,94,0.00,,SKC,0.00,VWS V14.01,2013-04-23 07:31:00,
2013-04-23 02:36:00,30.1,28.6,30.06,NW,323,6.0,7.0,94,0.00,,SKC,0.00,VWS V14.01,2013-04-23 07:36:00,
2013-04-23 02:41:00,30.1,28.6,30.06,NW,325,6.0,9.0,94,0.00,,SKC,0.00,VWS V14.01,2013-04-23 07:41:00,
2013-04-23 02:46:00,30.2,28.7,30.06,NW,314,6.0,11.0,94,0.00,,SKC,0.00,VWS V14.01,2013-04-23 07:46:00,
2013-04-23 02:51:00,30.1,28.6,30.06,NW,318,7.0,11.0,94,0.00,,SKC,0.00,VWS V14.01,2013-04-23 07:51:00,
2013-04-23 02:56:00,30.1,28.6,30.06,NW,321,5.0,11.0,94,0.00,,SKC,0.00,VWS V14.01,2013-04-23 07:56:00,
2013-04-23 03:00:00,30.1,28.6,30.07,NW,321,7.0,11.0,94,0.00,,SKC,0.00,VWS V14.01,2013-04-23 08:00:00,
2013-04-23 03:01:00,30.1,28.6,30.07,NW,325,7.0,11.0,94,0.00,,SKC,0.00,VWS V14.01,2013-04-23 08:01:00,
2013-04-23 03:06:00,30.0,28.5,30.07,NW,323,7.0,10.0,94,0.00,,SKC,0.00,VWS V14.01,2013-04-23 08:06:00,
2013-04-23 03:11:00,30.1,28.6,30.07,NW,323,6.0,10.0,94,0.00,,SKC,0.00,VWS V14.01,2013-04-23 08:11:00,
2013-04-23 03:16:00,30.0,28.5,30.06,NW,323,6.0,10.0,94,0.00,,SKC,0.00,VWS V14.01,2013-04-23 08:16:00,
2013-04-23 03:22:00,30.0,28.5,30.06,NNW,327,5.0,10.0,94,0.00,,SKC,0.00,VWS V14.01,2013-04-23 08:22:00,
2013-04-23 03:27:00,30.0,28.5,30.06,NW,325,6.0,10.0,94,0.00,,SKC,0.00,VWS V14.01,2013-04-23 08:27:00,
2013-04-23 03:30:00,29.9,28.4,30.05,NW,321,5.0,10.0,94,0.00,,SKC,0.00,VWS V14.01,2013-04-23 08:30:00,
2013-04-23 03:32:00,30.0,28.5,30.06,NW,321,6.0,10.0,94,0.00,,SKC,0.00,VWS V14.01,2013-04-23 08:32:00,
2013-04-23 03:37:00,30.0,28.5,30.05,NW,321,5.0,6.0,94,0.00,,SKC,0.00,VWS V14.01,2013-04-23 08:37:00,
2013-04-23 03:42:00,29.9,28.4,30.05,NNW,327,6.0,9.0,94,0.00,,SKC,0.00,VWS V14.01,2013-04-23 08:42:00,
2013-04-23 03:47:00,29.9,28.4,30.05,NW,321,9.0,9.0,94,0.00,,SKC,0.00,VWS V14.01,2013-04-23 08:47:00,
2013-04-23 03:52:00,29.9,28.4,30.04,NW,325,7.0,10.0,94,0.00,,SKC,0.00,VWS V14.01,2013-04-23 08:52:00,
2013-04-23 03:57:00,29.9,28.4,30.05,NW,319,6.0,10.0,94,0.00,,SKC,0.00,VWS V14.01,2013-04-23 08:57:00,
2013-04-23 04:00:00,30.0,28.5,30.04,NW,319,5.0,10.0,94,0.00,,SKC,0.00,VWS V14.01,2013-04-23 09:00:00,
2013-04-23 04:02:00,30.1,28.6,30.04,NW,317,5.0,10.0,94,0.00,,SKC,0.00,VWS V14.01,2013-04-23 09:02:00,
2013-04-23 04:07:00,29.9,28.4,30.04,NW,320,7.0,7.0,94,0.00,,SKC,0.00,VWS V14.01,2013-04-23 09:07:00,
2013-04-23 04:12:00,29.9,28.4,30.04,NW,320,5.0,9.0,94,0.00,,SKC,0.00,VWS V14.01,2013-04-23 09:12:00,
2013-04-23 04:17:00,29.9,28.4,30.04,NW,323,6.0,10.0,94,0.00,,SKC,0.00,VWS V14.01,2013-04-23 09:17:00,
2013-04-23 04:22:00,29.8,28.3,30.04,NNW,334,4.0,10.0,94,0.00,,SKC,0.00,VWS V14.01,2013-04-23 09:22:00,
2013-04-23 04:27:00,29.8,28.3,30.04,NW,325,7.0,10.0,94,0.00,,SKC,0.00,VWS V14.01,2013-04-23 09:27:00,
2013-04-23 04:30:00,29.8,28.3,30.04,NW,325,5.0,10.0,94,0.00,,SKC,0.00,VWS V14.01,2013-04-23 09:30:00,
2013-04-23 04:32:00,29.8,28.3,30.04,NW,325,4.0,10.0,94,0.00,,SKC,0.00,VWS V14.01,2013-04-23 09:32:00,
2013-04-23 04:37:00,29.7,28.2,30.04,NW,325,6.0,6.0,94,0.00,,SKC,0.00,VWS V14.01,2013-04-23 09:37:00,
2013-04-23 04:42:00,29.7,28.2,30.03,NW,324,7.0,9.0,94,0.00,,SKC,0.00,VWS V14.01,2013-04-23 09:42:00,
2013-04-23 04:47:00,29.6,28.1,30.03,NW,324,6.0,9.0,94,0.00,,SKC,0.00,VWS V14.01,2013-04-23 09:47:00,
2013-04-23 04:52:00,29.5,28.0,30.03,NW,323,7.0,9.0,94,0.00,,SKC,0.00,VWS V14.01,2013-04-23 09:52:00,
2013-04-23 04:57:00,29.5,28.0,30.03,NW,319,8.0,9.0,94,0.00,,SKC,0.00,VWS V14.01,2013-04-23 09:57:00,
2013-04-23 05:00:00,29.4,27.9,30.03,NW,321,7.0,9.0,94,0.00,,SKC,0.00,VWS V14.01,2013-04-23 10:00:00,
2013-04-23 05:02:00,29.5,28.0,30.03,NW,321,6.0,9.0,94,0.00,,SKC,0.00,VWS V14.01,2013-04-23 10:02:00,
2013-04-23 05:07:00,29.4,27.9,30.03,NW,321,5.0,7.0,94,0.00,,SKC,0.00,VWS V14.01,2013-04-23 10:07:00,
2013-04-23 05:12:00,29.4,27.9,30.04,NW,321,4.0,8.0,94,0.00,,SKC,0.00,VWS V14.01,2013-04-23 10:12:00,
2013-04-23 05:17:00,29.3,27.8,30.04,NW,320,5.0,9.0,94,0.00,,SKC,0.00,VWS V14.01,2013-04-23 10:17:00,
2013-04-23 05:22:00,29.1,27.6,30.04,NW,320,4.0,9.0,94,0.00,,SKC,0.00,VWS V14.01,2013-04-23 10:22:00,
2013-04-23 05:27:00,28.9,27.4,30.04,NW,320,5.0,9.0,94,0.00,,SKC,0.00,VWS V14.01,2013-04-23 10:27:00,
2013-04-23 05:30:00,28.7,27.2,30.04,NW,320,3.0,9.0,94,0.00,,SKC,0.00,VWS V14.01,2013-04-23 10:30:00,
2013-04-23 05:32:00,28.8,27.3,30.04,NW,320,5.0,9.0,94,0.00,,SKC,0.00,VWS V14.01,2013-04-23 10:32:00,
2013-04-23 05:37:00,28.6,27.1,30.04,NW,320,5.0,5.0,94,0.00,,SKC,0.00,VWS V14.01,2013-04-23 10:37:00,
2013-04-23 05:42:00,28.4,26.9,30.04,NW,320,6.0,7.0,94,0.00,,SKC,0.00,VWS V14.01,2013-04-23 10:42:00,
2013-04-23 05:47:00,28.3,26.5,30.04,NW,320,4.0,7.0,93,0.00,,SKC,0.00,VWS V14.01,2013-04-23 10:47:00,
2013-04-23 05:52:00,28.1,26.3,30.04,NW,320,4.0,7.0,93,0.00,,SKC,0.00,VWS V14.01,2013-04-23 10:52:00,
2013-04-23 05:57:00,27.9,26.1,30.04,NW,320,2.0,7.0,93,0.00,,SKC,0.00,VWS V14.01,2013-04-23 10:57:00,
2013-04-23 06:00:00,27.7,25.9,30.05,NW,320,0.0,7.0,93,0.00,,SKC,0.00,VWS V14.01,2013-04-23 11:00:00,
2013-04-23 06:02:00,27.8,26.0,30.04,NW,320,2.0,7.0,93,0.00,,SKC,0.00,VWS V14.01,2013-04-23 11:02:00,
2013-04-23 06:07:00,27.6,25.8,30.05,NW,320,1.0,2.0,93,0.00,,SKC,0.00,VWS V14.01,2013-04-23 11:07:00,
2013-04-23 06:12:00,27.4,25.6,30.05,NW,320,0.0,2.0,93,0.00,,SKC,0.00,VWS V14.01,2013-04-23 11:12:00,
2013-04-23 06:17:00,27.3,25.5,30.05,NW,320,2.0,4.0,93,0.00,,SKC,0.00,VWS V14.01,2013-04-23 11:17:00,
2013-04-23 06:23:00,27.2,25.5,30.06,NW,320,0.0,4.0,93,0.00,,SKC,0.00,VWS V14.01,2013-04-23 11:23:00,
2013-04-23 06:28:00,27.0,25.2,30.06,NW,320,0.0,4.0,93,0.00,,SKC,0.00,VWS V14.01,2013-04-23 11:28:00,
2013-04-23 06:30:00,26.9,25.1,30.07,NW,320,0.0,4.0,93,0.00,,SKC,0.00,VWS V14.01,2013-04-23 11:30:00,
2013-04-23 06:33:00,26.9,25.1,30.07,NW,320,0.0,4.0,93,0.00,,SKC,0.00,VWS V14.01,2013-04-23 11:33:00,
2013-04-23 06:38:00,26.9,25.1,30.08,NW,320,0.0,0.0,93,0.00,,SKC,0.00,VWS V14.01,2013-04-23 11:38:00,
2013-04-23 06:43:00,26.9,25.1,30.08,NW,320,1.0,4.0,93,0.00,,SKC,0.00,VWS V14.01,2013-04-23 11:43:00,
2013-04-23 06:48:00,27.0,25.2,30.08,NW,320,0.0,5.0,93,0.00,,SKC,0.00,VWS V14.01,2013-04-23 11:48:00,
2013-04-23 06:53:00,27.1,25.4,30.08,NW,320,1.0,5.0,93,0.00,,SKC,0.00,VWS V14.01,2013-04-23 11:53:00,
2013-04-23 06:58:00,27.2,25.5,30.08,NW,315,1.0,6.0,93,0.00,,SKC,0.00,VWS V14.01,2013-04-23 11:58:00,
2013-04-23 07:00:00,27.4,25.6,30.08,NW,315,5.0,7.0,93,0.00,,SKC,0.00,VWS V14.01,2013-04-23 12:00:00,
2013-04-23 07:03:00,27.3,25.5,30.08,NW,315,2.0,7.0,93,0.00,,SKC,0.00,VWS V14.01,2013-04-23 12:03:00,
2013-04-23 07:08:00,27.4,25.6,30.07,NW,315,3.0,6.0,93,0.00,,SKC,0.00,VWS V14.01,2013-04-23 12:08:00,
2013-04-23 07:13:00,27.5,25.5,30.07,NW,315,6.0,8.0,92,0.00,,SKC,0.00,VWS V14.01,2013-04-23 12:13:00,
2013-04-23 07:18:00,27.6,25.3,30.07,NW,315,6.0,8.0,91,0.00,,SKC,0.00,VWS V14.01,2013-04-23 12:18:00,
2013-04-23 07:23:00,27.8,25.5,30.08,NW,315,4.0,8.0,91,0.00,,SKC,0.00,VWS V14.01,2013-04-23 12:23:00,
2013-04-23 07:28:00,27.9,25.6,30.07,NW,315,5.0,8.0,91,0.00,,SKC,0.00,VWS V14.01,2013-04-23 12:28:00,
2013-04-23 07:30:00,27.9,25.1,30.07,NW,313,2.0,8.0,89,0.00,,SKC,0.00,VWS V14.01,2013-04-23 12:30:00,
2013-04-23 07:33:00,28.0,25.5,30.07,NW,315,6.0,8.0,90,0.00,,SKC,0.00,VWS V14.01,2013-04-23 12:33:00,
2013-04-23 07:38:00,27.9,25.1,30.07,NW,313,6.0,6.0,89,0.00,,SKC,0.00,VWS V14.01,2013-04-23 12:38:00,
2013-04-23 07:43:00,27.7,24.6,30.07,NW,313,2.0,6.0,88,0.00,,SKC,0.00,VWS V14.01,2013-04-23 12:43:00,
2013-04-23 07:48:00,27.5,24.4,30.07,NW,313,4.0,6.0,88,0.00,,SKC,0.00,VWS V14.01,2013-04-23 12:48:00,
2013-04-23 07:53:00,27.3,24.0,30.08,NW,313,3.0,6.0,87,0.00,,SKC,0.00,VWS V14.01,2013-04-23 12:53:00,
2013-04-23 07:58:00,27.5,24.4,30.07,NW,313,3.0,6.0,88,0.00,,SKC,0.00,VWS V14.01,2013-04-23 12:58:00,
2013-04-23 08:00:00,27.8,24.4,30.07,NW,313,4.0,7.0,87,0.00,,SKC,0.00,VWS V14.01,2013-04-23 13:00:00,
2013-04-23 08:03:00,27.7,24.6,30.07,NW,313,6.0,7.0,88,0.00,,SKC,0.00,VWS V14.01,2013-04-23 13:03:00,
2013-04-23 08:08:00,28.0,24.6,30.07,NW,313,4.0,5.0,87,0.00,,SKC,0.00,VWS V14.01,2013-04-23 13:08:00,
2013-04-23 08:13:00,28.3,24.7,30.07,NW,313,4.0,9.0,86,0.00,,SKC,0.00,VWS V14.01,2013-04-23 13:13:00,
2013-04-23 08:18:00,28.5,24.9,30.07,NW,319,7.0,10.0,86,0.00,,SKC,0.00,VWS V14.01,2013-04-23 13:18:00,
2013-04-23 08:24:00,28.8,24.9,30.07,NW,319,4.0,10.0,85,0.00,,SKC,0.00,VWS V14.01,2013-04-23 13:24:00,
2013-04-23 08:29:00,29.1,25.2,30.07,NW,319,5.0,10.0,85,0.00,,SKC,0.00,VWS V14.01,2013-04-23 13:29:00,
2013-04-23 08:30:00,29.6,25.4,30.07,NW,319,5.0,10.0,84,0.00,,SKC,0.00,VWS V14.01,2013-04-23 13:30:00,
2013-04-23 08:34:00,29.5,25.3,30.07,NW,319,3.0,10.0,84,0.00,,SKC,0.00,VWS V14.01,2013-04-23 13:34:00,
2013-04-23 08:39:00,29.8,25.3,30.07,NW,319,4.0,8.0,83,0.00,,SKC,0.00,VWS V14.01,2013-04-23 13:39:00,
2013-04-23 08:44:00,30.0,25.2,30.07,NW,319,6.0,8.0,82,0.00,,SKC,0.00,VWS V14.01,2013-04-23 13:44:00,
2013-04-23 08:49:00,30.3,25.5,30.07,NW,319,4.0,8.0,82,0.00,,SKC,0.00,VWS V14.01,2013-04-23 13:49:00,
2013-04-23 08:54:00,30.6,25.8,30.07,NW,319,1.0,8.0,82,0.00,,SKC,0.00,VWS V14.01,2013-04-23 13:54:00,
2013-04-23 08:59:00,30.9,25.8,30.07,NW,319,5.0,8.0,81,0.00,,SKC,0.00,VWS V14.01,2013-04-23 13:59:00,
2013-04-23 09:00:00,31.2,25.8,30.07,NW,319,5.0,8.0,80,0.00,,SKC,0.00,VWS V14.01,2013-04-23 14:00:00,
2013-04-23 09:04:00,31.1,25.7,30.07,NW,319,5.0,8.0,80,0.00,,SKC,0.00,VWS V14.01,2013-04-23 14:04:00,
2013-04-23 09:09:00,31.4,26.0,30.07,NW,319,5.0,7.0,80,0.00,,SKC,0.00,VWS V14.01,2013-04-23 14:09:00,
2013-04-23 09:14:00,31.6,26.1,30.07,NW,319,7.0,8.0,80,0.00,,SKC,0.00,VWS V14.01,2013-04-23 14:14:00,
2013-04-23 09:19:00,31.8,26.4,30.07,NW,319,3.0,8.0,80,0.00,,SKC,0.00,VWS V14.01,2013-04-23 14:19:00,
2013-04-23 09:24:00,31.9,26.4,30.06,NW,318,5.0,8.0,80,0.00,,SKC,0.00,VWS V14.01,2013-04-23 14:24:00,
2013-04-23 09:29:00,32.1,26.6,30.06,NW,318,6.0,8.0,80,0.00,,SKC,0.00,VWS V14.01,2013-04-23 14:29:00,
2013-04-23 09:30:00,32.6,26.8,30.06,NW,319,2.0,8.0,79,0.00,,SKC,0.00,VWS V14.01,2013-04-23 14:30:00,
2013-04-23 09:34:00,32.5,26.7,30.06,NW,319,3.0,8.0,79,0.00,,SKC,0.00,VWS V14.01,2013-04-23 14:34:00,
2013-04-23 09:39:00,32.9,27.1,30.06,NW,318,4.0,6.0,79,0.01,,SKC,0.01,VWS V14.01,2013-04-23 14:39:00,
2013-04-23 09:44:00,33.0,26.9,30.06,NW,317,4.0,7.0,78,0.02,,SKC,0.02,VWS V14.01,2013-04-23 14:44:00,
2013-04-23 09:49:00,33.0,26.9,30.06,NW,315,6.0,8.0,78,0.03,,SKC,0.03,VWS V14.01,2013-04-23 14:49:00,
2013-04-23 09:54:00,33.0,26.9,30.06,NW,314,5.0,8.0,78,0.03,,SKC,0.03,VWS V14.01,2013-04-23 14:54:00,
2013-04-23 09:59:00,32.9,26.5,30.06,NW,315,6.0,9.0,77,0.04,,SKC,0.04,VWS V14.01,2013-04-23 14:59:00,
2013-04-23 10:00:00,33.2,26.8,30.06,NW,315,5.0,9.0,77,0.04,,SKC,0.04,VWS V14.01,2013-04-23 15:00:00,
2013-04-23 10:04:00,33.1,26.7,30.06,NW,315,4.0,9.0,77,0.04,,SKC,0.04,VWS V14.01,2013-04-23 15:04:00,
2013-04-23 10:09:00,33.4,27.0,30.06,NW,315,3.0,7.0,77,0.04,,SKC,0.04,VWS V14.01,2013-04-23 15:09:00,
2013-04-23 10:14:00,33.8,27.4,30.06,NW,313,2.0,7.0,77,0.05,,SKC,0.05,VWS V14.01,2013-04-23 15:14:00,
2013-04-23 10:19:00,34.4,28.0,30.06,NW,321,5.0,8.0,77,0.06,,SKC,0.06,VWS V14.01,2013-04-23 15:19:00,
2013-04-23 10:25:00,34.8,27.7,30.06,NW,321,0.0,8.0,75,0.07,,SKC,0.07,VWS V14.01,2013-04-23 15:25:00,
2013-04-23 10:30:00,35.1,28.0,30.06,NW,321,4.0,8.0,75,0.08,,SKC,0.08,VWS V14.01,2013-04-23 15:30:00,
2013-04-23 10:35:00,35.2,28.1,30.06,WNW,298,2.0,8.0,75,0.10,,SKC,0.10,VWS V14.01,2013-04-23 15:35:00,
2013-04-23 10:40:00,35.5,28.0,30.06,WNW,302,4.0,6.0,74,0.12,,SKC,0.12,VWS V14.01,2013-04-23 15:40:00,
2013-04-23 10:45:00,35.5,28.0,30.06,WNW,296,6.0,9.0,74,0.13,,SKC,0.13,VWS V14.01,2013-04-23 15:45:00,
2013-04-23 10:50:00,35.4,27.6,30.06,WNW,302,8.0,10.0,73,0.14,,SKC,0.14,VWS V14.01,2013-04-23 15:50:00,
2013-04-23 10:55:00,35.4,27.6,30.06,NW,313,3.0,10.0,73,0.16,,SKC,0.16,VWS V14.01,2013-04-23 15:55:00,
2013-04-23 11:00:00,35.3,27.9,30.06,West,271,3.0,10.0,74,0.17,,SKC,0.17,VWS V14.01,2013-04-23 16:00:00,
2013-04-23 11:05:00,35.4,28.0,30.05,WNW,292,5.0,10.0,74,0.18,,SKC,0.18,VWS V14.01,2013-04-23 16:05:00,
2013-04-23 11:10:00,35.4,28.0,30.05,West,277,6.0,8.0,74,0.14,,SKC,0.18,VWS V14.01,2013-04-23 16:10:00,
2013-04-23 11:15:00,35.6,27.8,30.05,NW,313,4.0,8.0,73,0.15,,SKC,0.19,VWS V14.01,2013-04-23 16:15:00,
2013-04-23 11:20:00,35.9,28.4,30.04,NW,310,5.0,8.0,74,0.16,,SKC,0.20,VWS V14.01,2013-04-23 16:20:00,
2013-04-23 11:25:00,36.2,28.4,30.04,WNW,300,3.0,9.0,73,0.16,,SKC,0.20,VWS V14.01,2013-04-23 16:25:00,
2013-04-23 11:30:00,36.4,28.6,30.04,WNW,290,5.0,10.0,73,0.17,,SKC,0.21,VWS V14.01,2013-04-23 16:30:00,
2013-04-23 11:35:00,36.6,28.4,30.03,WNW,289,5.0,12.0,72,0.18,,SKC,0.22,VWS V14.01,2013-04-23 16:35:00,
2013-04-23 11:40:00,36.7,28.5,30.03,WNW,292,4.0,11.0,72,0.12,,SKC,0.22,VWS V14.01,2013-04-23 16:40:00,
2013-04-23 11:45:00,37.0,28.8,30.03,NW,307,5.0,11.0,72,0.13,,SKC,0.23,VWS V14.01,2013-04-23 16:45:00,
2013-04-23 11:50:00,37.1,28.6,30.03,NW,311,7.0,11.0,71,0.14,,SKC,0.24,VWS V14.01,2013-04-23 16:50:00,
2013-04-23 11:55:00,37.5,29.3,30.02,WNW,303,6.0,11.0,72,0.14,,SKC,0.24,VWS V14.01,2013-04-23 16:55:00,
2013-04-23 12:00:00,37.7,29.5,30.02,WNW,299,4.0,11.0,72,0.14,,SKC,0.24,VWS V14.01,2013-04-23 17:00:00,
2013-04-23 12:05:00,37.9,29.4,30.02,WNW,301,4.0,11.0,71,0.15,,SKC,0.25,VWS V14.01,2013-04-23 17:05:00,
2013-04-23 12:10:00,38.1,29.5,30.03,NW,320,6.0,9.0,71,0.07,,SKC,0.25,VWS V14.01,2013-04-23 17:10:00,
2013-04-23 12:15:00,38.3,30.1,30.03,NW,317,5.0,9.0,72,0.08,,SKC,0.26,VWS V14.01,2013-04-23 17:15:00,
2013-04-23 12:20:00,38.5,29.9,30.02,NW,312,3.0,9.0,71,0.08,,SKC,0.26,VWS V14.01,2013-04-23 17:20:00,
2013-04-23 12:25:00,38.8,30.2,30.02,West,270,4.0,9.0,71,0.08,,SKC,0.26,VWS V14.01,2013-04-23 17:25:00,
2013-04-23 12:30:00,39.0,30.1,30.02,WNW,302,4.0,9.0,70,0.08,,SKC,0.26,VWS V14.01,2013-04-23 17:30:00,
2013-04-23 12:36:00,39.4,30.8,30.02,NW,312,0.0,9.0,71,0.09,,SKC,0.27,VWS V14.01,2013-04-23 17:36:00,
2013-04-23 12:41:00,39.8,31.2,30.02,NW,304,4.0,7.0,71,0.05,,SKC,0.27,VWS V14.01,2013-04-23 17:41:00,
2013-04-23 12:46:00,40.1,31.1,30.02,NW,311,4.0,8.0,70,0.05,,SKC,0.27,VWS V14.01,2013-04-23 17:46:00,
2013-04-23 12:51:00,40.4,30.7,30.02,WNW,293,5.0,9.0,68,0.05,,SKC,0.27,VWS V14.01,2013-04-23 17:51:00,
2013-04-23 12:56:00,40.9,32.6,30.01,NW,314,5.0,9.0,72,0.05,,SKC,0.27,VWS V14.01,2013-04-23 17:56:00,
2013-04-23 13:00:00,40.5,30.8,30.01,WNW,290,4.0,11.0,68,0.05,,SKC,0.27,VWS V14.01,2013-04-23 18:00:00,
2013-04-23 13:01:00,40.8,30.7,30.01,NW,313,6.0,9.0,67,0.05,,SKC,0.27,VWS V14.01,2013-04-23 18:01:00,
2013-04-23 13:06:00,40.5,30.8,30.01,WNW,290,8.0,11.0,68,0.05,,SKC,0.27,VWS V14.01,2013-04-23 18:06:00,
2013-04-23 13:11:00,40.6,30.1,30.01,NNW,340,7.0,12.0,66,0.02,,SKC,0.27,VWS V14.01,2013-04-23 18:11:00,
2013-04-23 13:16:00,40.7,29.9,30.01,WNW,297,7.0,12.0,65,0.02,,SKC,0.27,VWS V14.01,2013-04-23 18:16:00,
2013-04-23 13:21:00,40.9,29.7,30.00,WNW,298,5.0,12.0,64,0.02,,SKC,0.27,VWS V14.01,2013-04-23 18:21:00,
2013-04-23 13:26:00,40.9,28.9,30.00,WNW,302,4.0,12.0,62,0.02,,SKC,0.27,VWS V14.01,2013-04-23 18:26:00,
2013-04-23 13:30:00,41.1,29.1,30.00,WNW,302,6.0,12.0,62,0.02,,SKC,0.27,VWS V14.01,2013-04-23 18:30:00,
2013-04-23 13:31:00,41.0,28.6,30.00,WNW,288,4.0,12.0,61,0.02,,SKC,0.27,VWS V14.01,2013-04-23 18:31:00,
2013-04-23 13:36:00,41.1,29.1,30.00,WNW,302,6.0,12.0,62,0.02,,SKC,0.27,VWS V14.01,2013-04-23 18:36:00,
2013-04-23 13:41:00,41.3,28.5,30.00,NW,308,2.0,9.0,60,0.00,,SKC,0.27,VWS V14.01,2013-04-23 18:41:00,
2013-04-23 13:46:00,41.5,28.3,29.99,WNW,296,7.0,12.0,59,0.00,,SKC,0.27,VWS V14.01,2013-04-23 18:46:00,
2013-04-23 13:51:00,41.5,28.3,29.99,WNW,293,6.0,12.0,59,0.00,,SKC,0.27,VWS V14.01,2013-04-23 18:51:00,
2013-04-23 13:56:00,41.6,28.8,29.99,NW,305,5.0,12.0,60,0.00,,SKC,0.27,VWS V14.01,2013-04-23 18:56:00,
2013-04-23 14:00:00,41.5,27.8,29.99,WNW,291,7.0,13.0,58,0.00,,SKC,0.27,VWS V14.01,2013-04-23 19:00:00,
2013-04-23 14:01:00,41.7,28.0,30.00,WNW,289,4.0,13.0,58,0.00,,SKC,0.27,VWS V14.01,2013-04-23 19:01:00,
2013-04-23 14:06:00,41.5,27.8,30.00,WNW,291,6.0,7.0,58,0.00,,SKC,0.27,VWS V14.01,2013-04-23 19:06:00,
2013-04-23 14:11:00,41.4,27.8,30.00,NW,310,8.0,13.0,58,0.00,,SKC,0.27,VWS V14.01,2013-04-23 19:11:00,
2013-04-23 14:16:00,41.9,28.2,30.00,NW,313,4.0,13.0,58,0.00,,SKC,0.27,VWS V14.01,2013-04-23 19:16:00,
2013-04-23 14:21:00,42.1,26.2,30.00,WNW,288,23.0,23.0,53,0.00,,SKC,0.27,VWS V14.01,2013-04-23 19:21:00,
2013-04-23 14:26:00,41.8,26.4,30.00,NW,314,6.0,23.0,54,0.00,,SKC,0.27,VWS V14.01,2013-04-23 19:26:00,
2013-04-23 14:30:00,42.1,26.2,29.99,NW,319,5.0,23.0,53,0.00,,SKC,0.27,VWS V14.01,2013-04-23 19:30:00,
2013-04-23 14:31:00,42.0,25.2,30.00,NW,311,6.0,23.0,51,0.00,,SKC,0.27,VWS V14.01,2013-04-23 19:31:00,
2013-04-23 14:36:00,42.2,25.9,29.99,NW,307,8.0,8.0,52,0.00,,SKC,0.27,VWS V14.01,2013-04-23 19:36:00,
2013-04-23 14:41:00,42.0,25.7,29.99,NW,317,8.0,14.0,52,0.00,,SKC,0.27,VWS V14.01,2013-04-23 19:41:00,
2013-04-23 14:46:00,42.2,25.4,29.99,NW,313,5.0,14.0,51,0.00,,SKC,0.27,VWS V14.01,2013-04-23 19:46:00,
2013-04-23 14:51:00,42.7,26.3,29.99,NW,307,6.0,14.0,52,0.00,,SKC,0.27,VWS V14.01,2013-04-23 19:51:00,
2013-04-23 14:56:00,43.0,27.5,29.99,NW,306,5.0,14.0,54,0.00,,SKC,0.27,VWS V14.01,2013-04-23 19:56:00,
2013-04-23 15:00:00,43.4,25.0,29.99,NW,304,5.0,14.0,48,0.00,,SKC,0.27,VWS V14.01,2013-04-23 20:00:00,
2013-04-23 15:01:00,43.4,26.0,29.99,NW,319,6.0,14.0,50,0.00,,SKC,0.27,VWS V14.01,2013-04-23 20:01:00,
2013-04-23 15:06:00,43.4,25.0,29.99,WNW,294,6.0,11.0,48,0.00,,SKC,0.27,VWS V14.01,2013-04-23 20:06:00,
2013-04-23 15:11:00,43.1,25.3,29.99,WNW,298,2.0,11.0,49,0.00,,SKC,0.27,VWS V14.01,2013-04-23 20:11:00,
2013-04-23 15:16:00,43.4,26.0,29.99,NW,317,6.0,12.0,50,0.00,,SKC,0.27,VWS V14.01,2013-04-23 20:16:00,
2013-04-23 15:21:00,43.5,26.1,29.98,NW,316,9.0,12.0,50,0.00,,SKC,0.27,VWS V14.01,2013-04-23 20:21:00,
2013-04-23 15:26:00,43.6,26.7,29.98,NW,313,2.0,12.0,51,0.00,,SKC,0.27,VWS V14.01,2013-04-23 20:26:00,
2013-04-23 15:30:00,42.9,25.1,29.99,NW,304,5.0,12.0,49,0.00,,SKC,0.27,VWS V14.01,2013-04-23 20:30:00,
2013-04-23 15:31:00,43.2,26.3,29.99,NW,304,7.0,12.0,51,0.00,,SKC,0.27,VWS V14.01,2013-04-23 20:31:00,
2013-04-23 15:37:00,42.8,25.0,29.99,WNW,283,5.0,7.0,49,0.00,,SKC,0.27,VWS V14.01,2013-04-23 20:37:00,
2013-04-23 15:42:00,42.8,25.5,29.99,NW,317,6.0,10.0,50,0.00,,SKC,0.27,VWS V14.01,2013-04-23 20:42:00,
2013-04-23 15:47:00,43.1,25.7,29.99,NW,317,7.0,10.0,50,0.00,,SKC,0.27,VWS V14.01,2013-04-23 20:47:00,
2013-04-23 15:52:00,42.9,23.6,29.99,WNW,298,6.0,10.0,46,0.00,,SKC,0.27,VWS V14.01,2013-04-23 20:52:00,
2013-04-23 15:57:00,42.5,22.7,29.99,NW,318,5.0,10.0,45,0.00,,SKC,0.27,VWS V14.01,2013-04-23 20:57:00,
2013-04-23 16:00:00,42.6,24.3,29.98,NW,313,6.0,10.0,48,0.00,,SKC,0.27,VWS V14.01,2013-04-23 21:00:00,
2013-04-23 16:02:00,42.5,23.7,29.98,NW,317,0.0,10.0,47,0.00,,SKC,0.27,VWS V14.01,2013-04-23 21:02:00,
2013-04-23 16:07:00,42.6,23.8,29.98,NW,317,6.0,8.0,47,0.00,,SKC,0.27,VWS V14.01,2013-04-23 21:07:00,
2013-04-23 16:12:00,42.7,25.4,29.98,NW,316,5.0,9.0,50,0.00,,SKC,0.27,VWS V14.01,2013-04-23 21:12:00,
2013-04-23 16:17:00,43.0,24.2,29.98,NW,315,8.0,9.0,47,0.00,,SKC,0.27,VWS V14.01,2013-04-23 21:17:00,
2013-04-23 16:22:00,43.0,24.2,29.98,WNW,292,4.0,10.0,47,0.00,,SKC,0.27,VWS V14.01,2013-04-23 21:22:00,
2013-04-23 16:27:00,42.9,24.1,29.98,NW,309,1.0,10.0,47,0.00,,SKC,0.27,VWS V14.01,2013-04-23 21:27:00,
2013-04-23 16:30:00,42.8,23.0,29.98,WNW,290,7.0,11.0,45,0.00,,SKC,0.27,VWS V14.01,2013-04-23 21:30:00,
2013-04-23 16:32:00,42.9,24.1,29.98,NNW,332,6.0,11.0,47,0.00,,SKC,0.27,VWS V14.01,2013-04-23 21:32:00,
2013-04-23 16:37:00,42.7,22.3,29.98,WNW,296,1.0,7.0,44,0.00,,SKC,0.27,VWS V14.01,2013-04-23 21:37:00,
2013-04-23 16:42:00,42.4,22.6,29.98,NW,313,5.0,10.0,45,0.00,,SKC,0.27,VWS V14.01,2013-04-23 21:42:00,
2013-04-23 16:47:00,42.4,22.6,29.98,NW,313,0.0,10.0,45,0.00,,SKC,0.27,VWS V14.01,2013-04-23 21:47:00,
2013-04-23 16:52:00,42.6,21.1,29.98,NW,319,3.0,11.0,42,0.00,,SKC,0.27,VWS V14.01,2013-04-23 21:52:00,
2013-04-23 16:57:00,42.8,21.9,29.98,NW,320,1.0,11.0,43,0.00,,SKC,0.27,VWS V14.01,2013-04-23 21:57:00,
2013-04-23 17:00:00,42.7,23.4,29.98,NW,317,6.0,12.0,46,0.00,,SKC,0.27,VWS V14.01,2013-04-23 22:00:00,
2013-04-23 17:02:00,42.9,23.0,29.98,NW,321,9.0,12.0,45,0.00,,SKC,0.27,VWS V14.01,2013-04-23 22:02:00,
2013-04-23 17:07:00,42.6,22.8,29.98,NNW,327,6.0,9.0,45,0.00,,SKC,0.27,VWS V14.01,2013-04-23 22:07:00,
2013-04-23 17:12:00,42.0,22.7,29.97,NW,313,2.0,9.0,46,0.00,,SKC,0.27,VWS V14.01,2013-04-23 22:12:00,
2013-04-23 17:17:00,41.8,23.6,29.97,NW,315,2.0,9.0,48,0.00,,SKC,0.27,VWS V14.01,2013-04-23 22:17:00,
2013-04-23 17:22:00,41.6,21.9,29.97,NW,321,6.0,9.0,45,0.00,,SKC,0.27,VWS V14.01,2013-04-23 22:22:00,
2013-04-23 17:27:00,41.5,21.8,29.97,NW,322,7.0,9.0,45,0.00,,SKC,0.27,VWS V14.01,2013-04-23 22:27:00,
2013-04-23 17:30:00,41.2,22.0,29.97,NW,321,5.0,10.0,46,0.00,,SKC,0.27,VWS V14.01,2013-04-23 22:30:00,
2013-04-23 17:32:00,41.3,20.5,29.97,NW,322,6.0,10.0,43,0.00,,SKC,0.27,VWS V14.01,2013-04-23 22:32:00,
2013-04-23 17:37:00,41.1,21.9,29.97,NW,323,8.0,9.0,46,0.00,,SKC,0.27,VWS V14.01,2013-04-23 22:37:00,
2013-04-23 17:42:00,40.9,21.7,29.97,NNW,327,5.0,10.0,46,0.00,,SKC,0.27,VWS V14.01,2013-04-23 22:42:00,
2013-04-23 17:47:00,40.7,21.5,29.97,NW,321,7.0,10.0,46,0.00,,SKC,0.27,VWS V14.01,2013-04-23 22:47:00,
2013-04-23 17:52:00,40.7,22.1,29.97,NNW,327,8.0,11.0,47,0.00,,SKC,0.27,VWS V14.01,2013-04-23 22:52:00,
2013-04-23 17:57:00,40.6,22.0,29.97,NW,321,4.0,11.0,47,0.00,,SKC,0.27,VWS V14.01,2013-04-23 22:57:00,
2013-04-23 18:00:00,40.4,21.8,29.97,NW,319,8.0,11.0,47,0.00,,SKC,0.27,VWS V14.01,2013-04-23 23:00:00,
2013-04-23 18:02:00,40.5,21.9,29.97,NW,323,4.0,11.0,47,0.00,,SKC,0.27,VWS V14.01,2013-04-23 23:02:00,
2013-04-23 18:08:00,40.4,21.3,29.97,NNW,329,6.0,8.0,46,0.00,,SKC,0.27,VWS V14.01,2013-04-23 23:08:00,
2013-04-23 18:13:00,40.3,21.7,29.97,NW,326,4.0,10.0,47,0.00,,SKC,0.27,VWS V14.01,2013-04-23 23:13:00,
2013-04-23 18:18:00,40.2,21.6,29.97,NW,320,5.0,10.0,47,0.00,,SKC,0.27,VWS V14.01,2013-04-23 23:18:00,
2013-04-23 18:23:00,40.2,20.6,29.97,NW,319,2.0,10.0,45,0.00,,SKC,0.27,VWS V14.01,2013-04-23 23:23:00,
2013-04-23 18:28:00,40.2,20.6,29.97,NW,322,6.0,10.0,45,0.00,,SKC,0.27,VWS V14.01,2013-04-23 23:28:00,
2013-04-23 18:30:00,40.4,19.7,29.97,NW,317,5.0,10.0,43,0.00,,SKC,0.27,VWS V14.01,2013-04-23 23:30:00,
2013-04-23 18:33:00,40.4,21.3,29.97,NW,317,5.0,10.0,46,0.00,,SKC,0.27,VWS V14.01,2013-04-23 23:33:00,
2013-04-23 18:38:00,40.4,20.8,29.97,NW,318,7.0,7.0,45,0.00,,SKC,0.27,VWS V14.01,2013-04-23 23:38:00,
2013-04-23 18:43:00,40.3,20.7,29.97,NW,321,2.0,9.0,45,0.00,,SKC,0.27,VWS V14.01,2013-04-23 23:43:00,
2013-04-23 18:48:00,40.1,20.5,29.97,NW,321,5.0,9.0,45,0.00,,SKC,0.27,VWS V14.01,2013-04-23 23:48:00,
2013-04-23 18:53:00,39.7,19.6,29.97,NW,320,5.0,10.0,44,0.00,,SKC,0.27,VWS V14.01,2013-04-23 23:53:00,
2013-04-23 18:58:00,39.3,20.3,29.97,NW,320,4.0,10.0,46,0.00,,SKC,0.27,VWS V14.01,2013-04-23 23:58:00,
2013-04-23 19:00:00,38.8,19.3,29.97,NW,320,4.0,10.0,45,0.00,,SKC,0.27,VWS V14.01,2013-04-24 00:00:00,
2013-04-23 19:03:00,39.0,19.5,29.97,NW,320,5.0,10.0,45,0.00,,SKC,0.27,VWS V14.01,2013-04-24 00:03:00,
2013-04-23 19:08:00,38.7,19.7,29.96,NW,320,2.0,5.0,46,0.00,,SKC,0.27,VWS V14.01,2013-04-24 00:08:00,
2013-04-23 19:13:00,38.6,19.6,29.96,NW,320,5.0,8.0,46,0.00,,SKC,0.27,VWS V14.01,2013-04-24 00:13:00,
2013-04-23 19:18:00,38.4,19.4,29.96,NW,320,1.0,8.0,46,0.00,,SKC,0.27,VWS V14.01,2013-04-24 00:18:00,
2013-04-23 19:23:00,38.2,19.3,29.96,NW,319,4.0,9.0,46,0.00,,SKC,0.27,VWS V14.01,2013-04-24 00:23:00,
2013-04-23 19:28:00,38.0,19.1,29.96,NW,319,1.0,9.0,46,0.00,,SKC,0.27,VWS V14.01,2013-04-24 00:28:00,
2013-04-23 19:30:00,37.7,19.3,29.96,NW,319,4.0,9.0,47,0.00,,SKC,0.27,VWS V14.01,2013-04-24 00:30:00,
2013-04-23 19:33:00,37.8,19.4,29.96,NW,319,4.0,9.0,47,0.00,,SKC,0.27,VWS V14.01,2013-04-24 00:33:00,
2013-04-23 19:38:00,37.6,19.2,29.96,NW,319,5.0,7.0,47,0.00,,SKC,0.27,VWS V14.01,2013-04-24 00:38:00,
2013-04-23 19:43:00,37.4,19.5,29.96,NW,319,2.0,7.0,48,0.00,,SKC,0.27,VWS V14.01,2013-04-24 00:43:00,
2013-04-23 19:48:00,37.2,19.3,29.96,NW,319,4.0,7.0,48,0.00,,SKC,0.27,VWS V14.01,2013-04-24 00:48:00,
2013-04-23 19:53:00,37.0,19.6,29.96,NW,319,1.0,7.0,49,0.00,,SKC,0.27,VWS V14.01,2013-04-24 00:53:00,
2013-04-23 19:58:00,36.8,19.0,29.96,NW,319,0.0,7.0,48,0.00,,SKC,0.27,VWS V14.01,2013-04-24 00:58:00,
2013-04-23 20:00:00,36.5,18.7,29.96,NW,319,0.0,7.0,48,0.00,,SKC,0.27,VWS V14.01,2013-04-24 01:00:00,
2013-04-23 20:03:00,36.6,18.8,29.96,NW,319,0.0,7.0,48,0.00,,SKC,0.27,VWS V14.01,2013-04-24 01:03:00,
2013-04-23 20:09:00,36.4,18.6,29.96,NW,319,0.0,2.0,48,0.00,,SKC,0.27,VWS V14.01,2013-04-24 01:09:00,
2013-04-23 20:14:00,36.2,17.9,29.96,NW,319,0.0,3.0,47,0.00,,SKC,0.27,VWS V14.01,2013-04-24 01:14:00,
2013-04-23 20:19:00,35.9,18.6,29.96,NW,319,0.0,3.0,49,0.00,,SKC,0.27,VWS V14.01,2013-04-24 01:19:00,
2013-04-23 20:24:00,35.6,18.3,29.96,NW,319,0.0,3.0,49,0.00,,SKC,0.27,VWS V14.01,2013-04-24 01:24:00,
2013-04-23 20:29:00,35.3,17.6,29.96,NW,319,0.0,3.0,48,0.00,,SKC,0.27,VWS V14.01,2013-04-24 01:29:00,
2013-04-23 20:30:00,34.9,18.2,29.96,NW,319,0.0,3.0,50,0.00,,SKC,0.27,VWS V14.01,2013-04-24 01:30:00,
2013-04-23 20:34:00,35.0,18.2,29.96,NW,319,0.0,3.0,50,0.00,,SKC,0.27,VWS V14.01,2013-04-24 01:34:00,
2013-04-23 20:39:00,34.7,19.3,29.96,NW,319,0.0,0.0,53,0.00,,SKC,0.27,VWS V14.01,2013-04-24 01:39:00,
2013-04-23 20:44:00,34.4,18.6,29.97,NW,319,0.0,1.0,52,0.00,,SKC,0.27,VWS V14.01,2013-04-24 01:44:00,
2013-04-23 20:49:00,34.1,20.1,29.97,NW,318,1.0,6.0,56,0.00,,SKC,0.27,VWS V14.01,2013-04-24 01:49:00,
2013-04-23 20:54:00,33.7,20.9,29.97,NW,318,0.0,6.0,59,0.00,,SKC,0.27,VWS V14.01,2013-04-24 01:54:00,
2013-04-23 20:59:00,33.3,21.3,29.97,NW,318,0.0,6.0,61,0.00,,SKC,0.27,VWS V14.01,2013-04-24 01:59:00,
2013-04-23 21:00:00,33.0,21.8,29.97,NW,318,0.0,6.0,63,0.00,,SKC,0.27,VWS V14.01,2013-04-24 02:00:00,
2013-04-23 21:04:00,33.1,21.5,29.97,NW,318,0.0,6.0,62,0.00,,SKC,0.27,VWS V14.01,2013-04-24 02:04:00,
2013-04-23 21:09:00,32.9,22.4,29.97,NW,318,0.0,0.0,65,0.00,,SKC,0.27,VWS V14.01,2013-04-24 02:09:00,
2013-04-23 21:16:00,32.8,22.7,29.97,NW,318,0.0,4.0,66,0.00,,SKC,0.27,VWS V14.01,2013-04-24 02:16:00,
2013-04-23 21:21:00,32.6,23.2,29.97,NW,311,5.0,5.0,68,0.00,,SKC,0.27,VWS V14.01,2013-04-24 02:21:00,
2013-04-23 21:27:00,32.3,23.3,29.98,NW,311,0.0,6.0,69,0.00,,SKC,0.27,VWS V14.01,2013-04-24 02:27:00,
2013-04-23 21:30:00,32.1,23.4,29.98,NW,311,0.0,6.0,70,0.00,,SKC,0.27,VWS V14.01,2013-04-24 02:30:00,
2013-04-23 21:32:00,32.2,23.5,29.98,NW,311,0.0,6.0,70,0.00,,SKC,0.27,VWS V14.01,2013-04-24 02:32:00,
2013-04-23 21:39:00,32.0,23.3,29.98,NW,311,0.0,1.0,70,0.00,,SKC,0.27,VWS V14.01,2013-04-24 02:39:00,
2013-04-23 21:45:00,31.8,23.5,29.98,NW,311,0.0,2.0,71,0.00,,SKC,0.27,VWS V14.01,2013-04-24 02:45:00,
2013-04-23 21:51:00,31.7,23.4,29.99,NW,311,0.0,2.0,71,0.00,,SKC,0.27,VWS V14.01,2013-04-24 02:51:00,
2013-04-23 21:59:00,31.4,23.1,29.99,NW,311,0.0,5.0,71,0.00,,SKC,0.27,VWS V14.01,2013-04-24 02:59:00,
2013-04-23 22:00:00,31.2,23.2,29.99,NW,311,0.0,5.0,72,0.00,,SKC,0.27,VWS V14.01,2013-04-24 03:00:00,
2013-04-23 22:04:00,31.2,23.2,29.99,NW,311,0.0,5.0,72,0.00,,SKC,0.27,VWS V14.01,2013-04-24 03:04:00,
2013-04-23 22:10:00,31.1,23.1,29.99,NW,311,0.0,2.0,72,0.00,,SKC,0.27,VWS V14.01,2013-04-24 03:10:00,
2013-04-23 22:15:00,30.9,23.0,29.99,NW,311,1.0,2.0,72,0.00,,SKC,0.27,VWS V14.01,2013-04-24 03:15:00,
2013-04-23 22:20:00,30.8,22.9,29.99,NW,311,0.0,2.0,72,0.00,,SKC,0.27,VWS V14.01,2013-04-24 03:20:00,
2013-04-23 22:25:00,30.6,22.7,29.99,NW,311,0.0,3.0,72,0.00,,SKC,0.27,VWS V14.01,2013-04-24 03:25:00,
2013-04-23 22:30:00,30.5,23.2,29.99,NW,311,0.0,3.0,74,0.00,,SKC,0.27,VWS V14.01,2013-04-24 03:30:00,
2013-04-23 22:31:00,30.6,23.0,29.99,NW,311,0.0,3.0,73,0.00,,SKC,0.27,VWS V14.01,2013-04-24 03:31:00,
2013-04-23 22:37:00,30.5,22.9,29.99,NW,311,0.0,0.0,73,0.00,,SKC,0.27,VWS V14.01,2013-04-24 03:37:00,
2013-04-23 22:42:00,30.4,23.1,29.99,NW,311,0.0,3.0,74,0.00,,SKC,0.27,VWS V14.01,2013-04-24 03:42:00,
2013-04-23 22:48:00,30.2,22.9,29.99,NW,311,0.0,3.0,74,0.00,,SKC,0.27,VWS V14.01,2013-04-24 03:48:00,
2013-04-23 22:55:00,30.1,22.8,29.99,NW,311,0.0,3.0,74,0.00,,SKC,0.27,VWS V14.01,2013-04-24 03:55:00,
2013-04-23 23:00:00,30.0,22.7,29.99,NW,311,0.0,3.0,74,0.00,,SKC,0.27,VWS V14.01,2013-04-24 04:00:00,
2013-04-23 23:01:00,29.9,22.6,29.99,NW,311,0.0,3.0,74,0.00,,SKC,0.27,VWS V14.01,2013-04-24 04:01:00,
2013-04-23 23:02:00,29.9,22.6,29.99,NW,311,0.0,3.0,74,0.00,,SKC,0.27,VWS V14.01,2013-04-24 04:02:00,
2013-04-23 23:04:00,29.9,22.6,29.99,NW,311,0.0,3.0,74,0.00,,SKC,0.27,VWS V14.01,2013-04-24 04:04:00,
2013-04-23 23:06:00,29.8,22.5,29.99,NW,311,0.0,3.0,74,0.00,,SKC,0.27,VWS V14.01,2013-04-24 04:06:00,
2013-04-23 23:11:00,29.8,22.5,29.98,NW,311,0.0,3.0,74,0.00,,SKC,0.27,VWS V14.01,2013-04-24 04:11:00,
2013-04-23 23:16:00,29.7,22.8,29.98,NW,311,0.0,3.0,75,0.00,,SKC,0.27,VWS V14.01,2013-04-24 04:16:00,
2013-04-23 23:21:00,29.6,22.7,29.98,NW,311,0.0,3.0,75,0.00,,SKC,0.27,VWS V14.01,2013-04-24 04:21:00,
2013-04-23 23:26:00,29.5,22.6,29.98,NW,310,0.0,4.0,75,0.00,,SKC,0.27,VWS V14.01,2013-04-24 04:26:00,
2013-04-23 23:30:00,29.3,22.4,29.98,NW,310,0.0,4.0,75,0.00,,SKC,0.27,VWS V14.01,2013-04-24 04:30:00,
2013-04-23 23:31:00,29.4,22.5,29.98,NW,310,0.0,4.0,75,0.00,,SKC,0.27,VWS V14.01,2013-04-24 04:31:00,
2013-04-23 23:36:00,29.3,22.4,29.98,NW,310,0.0,0.0,75,0.00,,SKC,0.27,VWS V14.01,2013-04-24 04:36:00,
2013-04-23 23:41:00,29.2,22.3,29.98,NW,310,1.0,1.0,75,0.00,,SKC,0.27,VWS V14.01,2013-04-24 04:41:00,
2013-04-23 23:46:00,29.1,22.5,29.98,NW,310,0.0,2.0,76,0.00,,SKC,0.27,VWS V14.01,2013-04-24 04:46:00,
2013-04-23 23:52:00,29.1,22.8,29.98,NW,310,0.0,2.0,77,0.00,,SKC,0.27,VWS V14.01,2013-04-24 04:52:00,
2013-04-23 23:57:00,29.0,22.4,29.98,NW,310,0.0,2.0,76,0.00,,SKC,0.27,VWS V14.01,2013-04-24 04:57:00,